sensor_id;sensor_type;location;lat;lon;timestamp;pressure;altitude;pressure_sealevel;temperature;humidity
64388;BME280;50709;52.648;4.764;2023-02-10T00:02:05;103512.75;;;10.36;68.16
64388;BME280;50709;52.648;4.764;2023-02-10T00:04:51;103510.25;;;10.39;68.34
64388;BME280;50709;52.648;4.764;2023-02-10T00:07:17;103506.25;;;10.27;68.38
64388;BME280;50709;52.648;4.764;2023-02-10T00:09:43;103505.88;;;10.38;68.48
64388;BME280;50709;52.648;4.764;2023-02-10T00:12:28;103499.22;;;10.26;67.63
64388;BME280;50709;52.648;4.764;2023-02-10T00:14:54;103514.13;;;10.09;67.37
64388;BME280;50709;52.648;4.764;2023-02-10T00:17:19;103505.00;;;10.01;68.59
64388;BME280;50709;52.648;4.764;2023-02-10T00:20:05;103525.81;;;10.18;68.06
64388;BME280;50709;52.648;4.764;2023-02-10T00:22:32;103531.03;;;10.18;68.81
64388;BME280;50709;52.648;4.764;2023-02-10T00:24:57;103520.19;;;9.72;68.49
64388;BME280;50709;52.648;4.764;2023-02-10T00:27:23;103521.00;;;9.89;68.65
64388;BME280;50709;52.648;4.764;2023-02-10T00:29:49;103525.47;;;9.92;68.64
64388;BME280;50709;52.648;4.764;2023-02-10T00:32:15;103524.28;;;9.85;69.21
64388;BME280;50709;52.648;4.764;2023-02-10T00:34:43;103527.09;;;9.90;69.19
64388;BME280;50709;52.648;4.764;2023-02-10T00:37:09;103549.19;;;9.79;68.94
64388;BME280;50709;52.648;4.764;2023-02-10T00:39:34;103541.13;;;9.74;68.93
64388;BME280;50709;52.648;4.764;2023-02-10T00:42:00;103548.56;;;9.66;69.42
64388;BME280;50709;52.648;4.764;2023-02-10T00:44:25;103537.31;;;9.67;68.68
64388;BME280;50709;52.648;4.764;2023-02-10T00:46:51;103541.59;;;9.65;68.63
64388;BME280;50709;52.648;4.764;2023-02-10T00:49:16;103535.63;;;9.68;68.55
64388;BME280;50709;52.648;4.764;2023-02-10T00:52:02;103546.41;;;9.57;68.94
64388;BME280;50709;52.648;4.764;2023-02-10T00:54:28;103510.03;;;9.42;68.75
64388;BME280;50709;52.648;4.764;2023-02-10T00:56:53;103529.88;;;9.57;68.98
64388;BME280;50709;52.648;4.764;2023-02-10T00:59:19;103510.31;;;9.49;69.35
64388;BME280;50709;52.648;4.764;2023-02-10T01:01:45;103529.41;;;9.48;68.87
64388;BME280;50709;52.648;4.764;2023-02-10T01:04:11;103510.63;;;9.37;69.53
64388;BME280;50709;52.648;4.764;2023-02-10T01:06:37;103499.81;;;9.29;69.06
64388;BME280;50709;52.648;4.764;2023-02-10T01:09:22;103549.56;;;9.50;69.13
64388;BME280;50709;52.648;4.764;2023-02-10T01:11:49;103562.66;;;9.52;69.14
64388;BME280;50709;52.648;4.764;2023-02-10T01:14:15;103503.00;;;9.41;68.97
64388;BME280;50709;52.648;4.764;2023-02-10T01:16:40;103551.78;;;9.60;69.10
64388;BME280;50709;52.648;4.764;2023-02-10T01:19:06;103555.84;;;9.37;68.93
64388;BME280;50709;52.648;4.764;2023-02-10T01:21:33;103565.69;;;9.43;69.59
64388;BME280;50709;52.648;4.764;2023-02-10T01:24:04;103555.78;;;9.36;69.05
64388;BME280;50709;52.648;4.764;2023-02-10T01:26:29;103573.25;;;9.55;69.85
64388;BME280;50709;52.648;4.764;2023-02-10T01:28:56;103580.84;;;9.50;69.34
64388;BME280;50709;52.648;4.764;2023-02-10T01:31:21;103563.81;;;9.40;69.49
64388;BME280;50709;52.648;4.764;2023-02-10T01:33:52;103552.28;;;9.19;69.38
64388;BME280;50709;52.648;4.764;2023-02-10T01:36:19;103569.56;;;9.33;69.84
64388;BME280;50709;52.648;4.764;2023-02-10T01:39:04;103579.53;;;9.42;69.73
64388;BME280;50709;52.648;4.764;2023-02-10T01:41:29;103562.28;;;9.44;70.01
64388;BME280;50709;52.648;4.764;2023-02-10T01:45:01;103577.25;;;9.48;69.65
64388;BME280;50709;52.648;4.764;2023-02-10T01:46:54;103565.25;;;9.17;69.44
64388;BME280;50709;52.648;4.764;2023-02-10T01:49:24;103570.06;;;9.26;70.51
64388;BME280;50709;52.648;4.764;2023-02-10T01:52:21;103544.50;;;9.02;69.74
64388;BME280;50709;52.648;4.764;2023-02-10T01:54:53;103503.59;;;9.01;70.12
64388;BME280;50709;52.648;4.764;2023-02-10T01:57:20;103550.59;;;9.19;70.24
64388;BME280;50709;52.648;4.764;2023-02-10T01:59:46;103563.91;;;9.07;70.57
64388;BME280;50709;52.648;4.764;2023-02-10T02:02:12;103576.91;;;9.24;71.27
64388;BME280;50709;52.648;4.764;2023-02-10T02:05:02;103562.09;;;9.06;70.17
64388;BME280;50709;52.648;4.764;2023-02-10T02:07:29;103547.66;;;9.13;70.46
64388;BME280;50709;52.648;4.764;2023-02-10T02:10:02;103583.72;;;9.38;69.47
64388;BME280;50709;52.648;4.764;2023-02-10T02:12:54;103573.00;;;9.16;70.24
64388;BME280;50709;52.648;4.764;2023-02-10T02:15:40;103569.84;;;9.05;69.58
64388;BME280;50709;52.648;4.764;2023-02-10T02:18:36;103539.13;;;8.66;70.56
64388;BME280;50709;52.648;4.764;2023-02-10T02:24:21;103577.69;;;8.72;70.33
64388;BME280;50709;52.648;4.764;2023-02-10T02:27:35;103586.88;;;8.82;70.90
64388;BME280;50709;52.648;4.764;2023-02-10T02:33:27;103543.63;;;8.85;70.01
64388;BME280;50709;52.648;4.764;2023-02-10T02:36:00;103546.31;;;8.70;70.72
64388;BME280;50709;52.648;4.764;2023-02-10T02:38:28;103567.94;;;8.53;70.33
64388;BME280;50709;52.648;4.764;2023-02-10T02:40:54;103578.56;;;8.56;70.71
64388;BME280;50709;52.648;4.764;2023-02-10T02:43:20;103573.28;;;8.39;71.52
64388;BME280;50709;52.648;4.764;2023-02-10T02:46:04;103561.53;;;8.31;71.34
64388;BME280;50709;52.648;4.764;2023-02-10T02:49:01;103558.53;;;8.23;71.00
64388;BME280;50709;52.648;4.764;2023-02-10T02:51:49;103580.75;;;8.48;71.32
64388;BME280;50709;52.648;4.764;2023-02-10T02:54:42;103545.00;;;8.14;71.39
64388;BME280;50709;52.648;4.764;2023-02-10T02:57:31;103579.47;;;8.41;71.25
64388;BME280;50709;52.648;4.764;2023-02-10T03:00:06;103570.72;;;8.24;71.48
64388;BME280;50709;52.648;4.764;2023-02-10T03:02:37;103581.00;;;8.38;71.56
64388;BME280;50709;52.648;4.764;2023-02-10T03:05:07;103583.69;;;8.54;71.59
64388;BME280;50709;52.648;4.764;2023-02-10T03:07:34;103591.38;;;8.84;71.17
64388;BME280;50709;52.648;4.764;2023-02-10T03:10:04;103577.25;;;8.64;70.50
64388;BME280;50709;52.648;4.764;2023-02-10T03:12:30;103582.13;;;8.58;71.25
64388;BME280;50709;52.648;4.764;2023-02-10T03:14:56;103545.63;;;8.41;71.12
64388;BME280;50709;52.648;4.764;2023-02-10T03:17:23;103585.88;;;8.63;71.04
64388;BME280;50709;52.648;4.764;2023-02-10T03:20:09;103572.22;;;8.36;70.82
64388;BME280;50709;52.648;4.764;2023-02-10T03:22:35;103560.13;;;8.21;71.04
64388;BME280;50709;52.648;4.764;2023-02-10T03:25:02;103570.56;;;8.38;71.78
64388;BME280;50709;52.648;4.764;2023-02-10T03:27:30;103595.22;;;8.59;70.91
64388;BME280;50709;52.648;4.764;2023-02-10T03:29:55;103579.59;;;8.59;70.54
64388;BME280;50709;52.648;4.764;2023-02-10T03:32:22;103600.06;;;8.68;71.01
64388;BME280;50709;52.648;4.764;2023-02-10T03:34:47;103599.41;;;8.56;71.24
64388;BME280;50709;52.648;4.764;2023-02-10T03:37:15;103586.19;;;8.53;71.02
64388;BME280;50709;52.648;4.764;2023-02-10T03:39:43;103602.00;;;8.56;70.61
64388;BME280;50709;52.648;4.764;2023-02-10T03:42:08;103594.84;;;8.52;71.37
64388;BME280;50709;52.648;4.764;2023-02-10T03:44:35;103591.31;;;8.51;71.56
64388;BME280;50709;52.648;4.764;2023-02-10T03:47:00;103605.44;;;8.71;70.59
64388;BME280;50709;52.648;4.764;2023-02-10T03:49:47;103607.06;;;8.69;70.73
64388;BME280;50709;52.648;4.764;2023-02-10T03:52:14;103603.41;;;8.66;70.56
64388;BME280;50709;52.648;4.764;2023-02-10T03:54:39;103588.72;;;8.36;70.48
64388;BME280;50709;52.648;4.764;2023-02-10T03:57:04;103591.53;;;8.24;71.02
64388;BME280;50709;52.648;4.764;2023-02-10T03:59:32;103579.03;;;8.02;71.49
64388;BME280;50709;52.648;4.764;2023-02-10T04:01:59;103571.47;;;8.07;71.74
64388;BME280;50709;52.648;4.764;2023-02-10T04:04:26;103580.97;;;8.21;71.85
64388;BME280;50709;52.648;4.764;2023-02-10T04:06:51;103574.69;;;8.18;71.66
64388;BME280;50709;52.648;4.764;2023-02-10T04:09:18;103571.28;;;8.19;71.52
64388;BME280;50709;52.648;4.764;2023-02-10T04:12:04;103565.44;;;8.23;72.08
64388;BME280;50709;52.648;4.764;2023-02-10T04:14:29;103571.59;;;8.08;71.39
64388;BME280;50709;52.648;4.764;2023-02-10T04:16:55;103578.41;;;8.06;71.98
64388;BME280;50709;52.648;4.764;2023-02-10T04:19:20;103579.72;;;8.15;72.06
64388;BME280;50709;52.648;4.764;2023-02-10T04:21:46;103579.56;;;8.12;72.21
64388;BME280;50709;52.648;4.764;2023-02-10T04:24:13;103576.31;;;8.16;72.09
64388;BME280;50709;52.648;4.764;2023-02-10T04:26:39;103578.78;;;7.98;71.73
64388;BME280;50709;52.648;4.764;2023-02-10T04:29:25;103580.63;;;8.00;71.45
64388;BME280;50709;52.648;4.764;2023-02-10T04:31:50;103574.84;;;8.04;71.73
64388;BME280;50709;52.648;4.764;2023-02-10T04:34:17;103587.94;;;8.06;71.51
64388;BME280;50709;52.648;4.764;2023-02-10T04:36:42;103586.03;;;8.03;70.92
64388;BME280;50709;52.648;4.764;2023-02-10T04:39:08;103579.00;;;8.17;70.89
64388;BME280;50709;52.648;4.764;2023-02-10T04:41:33;103585.09;;;8.18;71.58
64388;BME280;50709;52.648;4.764;2023-02-10T04:43:59;103575.81;;;8.06;72.12
64388;BME280;50709;52.648;4.764;2023-02-10T04:46:24;103577.97;;;7.84;72.57
64388;BME280;50709;52.648;4.764;2023-02-10T04:48:49;103581.50;;;7.84;72.69
64388;BME280;50709;52.648;4.764;2023-02-10T04:51:15;103568.28;;;7.81;72.74
64388;BME280;50709;52.648;4.764;2023-02-10T04:53:41;103550.09;;;7.66;72.67
64388;BME280;50709;52.648;4.764;2023-02-10T04:56:10;103555.75;;;7.59;71.62
64388;BME280;50709;52.648;4.764;2023-02-10T04:58:35;103542.59;;;7.71;71.96
64388;BME280;50709;52.648;4.764;2023-02-10T05:01:22;103544.81;;;7.50;72.42
64388;BME280;50709;52.648;4.764;2023-02-10T05:04:07;103580.06;;;7.60;72.70
64388;BME280;50709;52.648;4.764;2023-02-10T05:06:33;103535.69;;;7.41;72.76
64388;BME280;50709;52.648;4.764;2023-02-10T05:09:23;103584.28;;;7.72;73.41
64388;BME280;50709;52.648;4.764;2023-02-10T05:11:49;103581.59;;;7.86;73.38
64388;BME280;50709;52.648;4.764;2023-02-10T05:14:14;103568.19;;;7.95;73.39
64388;BME280;50709;52.648;4.764;2023-02-10T05:16:40;103548.72;;;7.88;71.85
64388;BME280;50709;52.648;4.764;2023-02-10T05:19:06;103564.16;;;8.00;72.04
64388;BME280;50709;52.648;4.764;2023-02-10T05:21:34;103575.34;;;7.99;72.12
64388;BME280;50709;52.648;4.764;2023-02-10T05:24:01;103571.91;;;7.83;71.47
64388;BME280;50709;52.648;4.764;2023-02-10T05:26:27;103566.97;;;7.73;72.13
64388;BME280;50709;52.648;4.764;2023-02-10T05:28:52;103562.22;;;7.66;72.98
64388;BME280;50709;52.648;4.764;2023-02-10T05:31:18;103556.47;;;7.56;73.56
64388;BME280;50709;52.648;4.764;2023-02-10T05:33:45;103512.91;;;7.22;73.54
64388;BME280;50709;52.648;4.764;2023-02-10T05:36:10;103568.22;;;7.50;72.17
64388;BME280;50709;52.648;4.764;2023-02-10T05:38:36;103572.56;;;7.49;73.47
64388;BME280;50709;52.648;4.764;2023-02-10T05:41:01;103577.03;;;7.52;74.03
64388;BME280;50709;52.648;4.764;2023-02-10T05:43:27;103574.97;;;7.76;73.07
64388;BME280;50709;52.648;4.764;2023-02-10T05:45:52;103570.38;;;7.87;73.34
64388;BME280;50709;52.648;4.764;2023-02-10T05:48:18;103560.66;;;7.99;72.35
64388;BME280;50709;52.648;4.764;2023-02-10T05:50:43;103577.72;;;8.25;71.35
64388;BME280;50709;52.648;4.764;2023-02-10T05:53:09;103570.81;;;8.57;71.11
64388;BME280;50709;52.648;4.764;2023-02-10T05:55:37;103541.00;;;8.85;69.95
64388;BME280;50709;52.648;4.764;2023-02-10T05:58:04;103576.06;;;9.41;68.96
64388;BME280;50709;52.648;4.764;2023-02-10T06:00:30;103569.22;;;9.43;68.01
64388;BME280;50709;52.648;4.764;2023-02-10T06:02:56;103577.72;;;9.39;67.68
64388;BME280;50709;52.648;4.764;2023-02-10T06:05:23;103591.72;;;9.59;67.55
64388;BME280;50709;52.648;4.764;2023-02-10T06:07:48;103590.31;;;9.66;67.35
64388;BME280;50709;52.648;4.764;2023-02-10T06:10:14;103595.94;;;10.28;65.94
64388;BME280;50709;52.648;4.764;2023-02-10T06:12:39;103593.78;;;10.37;65.43
64388;BME280;50709;52.648;4.764;2023-02-10T06:15:05;103585.28;;;10.41;64.85
64388;BME280;50709;52.648;4.764;2023-02-10T06:17:31;103554.66;;;10.39;65.33
64388;BME280;50709;52.648;4.764;2023-02-10T06:19:58;103574.25;;;10.67;63.98
64388;BME280;50709;52.648;4.764;2023-02-10T06:22:23;103579.16;;;10.05;66.03
64388;BME280;50709;52.648;4.764;2023-02-10T06:24:48;103583.41;;;10.21;66.73
64388;BME280;50709;52.648;4.764;2023-02-10T06:27:14;103561.03;;;10.26;67.14
64388;BME280;50709;52.648;4.764;2023-02-10T06:29:39;103586.97;;;10.98;65.36
64388;BME280;50709;52.648;4.764;2023-02-10T06:32:05;103571.41;;;10.42;67.66
64388;BME280;50709;52.648;4.764;2023-02-10T06:34:30;103571.47;;;10.83;69.88
64388;BME280;50709;52.648;4.764;2023-02-10T06:36:56;103564.34;;;10.59;68.49
64388;BME280;50709;52.648;4.764;2023-02-10T06:39:21;103549.13;;;10.90;69.12
64388;BME280;50709;52.648;4.764;2023-02-10T06:41:46;103576.91;;;10.68;67.50
64388;BME280;50709;52.648;4.764;2023-02-10T06:44:12;103571.00;;;10.72;68.34
64388;BME280;50709;52.648;4.764;2023-02-10T06:46:37;103572.25;;;10.81;69.99
64388;BME280;50709;52.648;4.764;2023-02-10T06:49:02;103570.78;;;10.12;70.18
64388;BME280;50709;52.648;4.764;2023-02-10T06:51:28;103581.78;;;10.41;69.61
64388;BME280;50709;52.648;4.764;2023-02-10T06:53:53;103576.25;;;10.17;70.52
64388;BME280;50709;52.648;4.764;2023-02-10T06:56:18;103593.22;;;10.82;70.02
64388;BME280;50709;52.648;4.764;2023-02-10T06:58:44;103584.06;;;10.72;68.04
64388;BME280;50709;52.648;4.764;2023-02-10T07:01:12;103591.44;;;11.01;69.35
64388;BME280;50709;52.648;4.764;2023-02-10T07:03:38;103592.47;;;10.65;68.23
64388;BME280;50709;52.648;4.764;2023-02-10T07:06:04;103597.34;;;10.57;69.60
64388;BME280;50709;52.648;4.764;2023-02-10T07:08:30;103590.34;;;9.84;69.95
64388;BME280;50709;52.648;4.764;2023-02-10T07:10:56;103600.25;;;9.39;70.68
64388;BME280;50709;52.648;4.764;2023-02-10T07:13:21;103602.06;;;9.74;71.32
64388;BME280;50709;52.648;4.764;2023-02-10T07:15:46;103609.00;;;10.10;70.69
64388;BME280;50709;52.648;4.764;2023-02-10T07:18:12;103609.53;;;10.39;70.05
64388;BME280;50709;52.648;4.764;2023-02-10T07:20:37;103613.56;;;10.50;69.51
64388;BME280;50709;52.648;4.764;2023-02-10T07:23:03;103593.53;;;10.51;69.77
64388;BME280;50709;52.648;4.764;2023-02-10T07:25:28;103584.19;;;10.56;69.81
64388;BME280;50709;52.648;4.764;2023-02-10T07:27:54;103588.91;;;10.27;70.01
64388;BME280;50709;52.648;4.764;2023-02-10T07:30:19;103605.56;;;10.29;69.17
64388;BME280;50709;52.648;4.764;2023-02-10T07:32:45;103602.28;;;9.97;70.84
64388;BME280;50709;52.648;4.764;2023-02-10T07:35:11;103608.44;;;9.63;70.98
64388;BME280;50709;52.648;4.764;2023-02-10T07:37:37;103621.50;;;9.63;71.22
64388;BME280;50709;52.648;4.764;2023-02-10T07:40:03;103623.25;;;10.17;71.54
64388;BME280;50709;52.648;4.764;2023-02-10T07:42:29;103598.19;;;10.02;70.38
64388;BME280;50709;52.648;4.764;2023-02-10T07:44:54;103618.63;;;10.29;70.21
64388;BME280;50709;52.648;4.764;2023-02-10T07:47:20;103603.41;;;10.02;69.28
64388;BME280;50709;52.648;4.764;2023-02-10T07:49:45;103619.88;;;9.49;71.03
64388;BME280;50709;52.648;4.764;2023-02-10T07:52:10;103632.59;;;9.59;70.12
64388;BME280;50709;52.648;4.764;2023-02-10T07:54:36;103622.94;;;9.74;72.59
64388;BME280;50709;52.648;4.764;2023-02-10T07:57:02;103628.06;;;9.38;71.13
64388;BME280;50709;52.648;4.764;2023-02-10T07:59:27;103637.97;;;9.62;72.09
64388;BME280;50709;52.648;4.764;2023-02-10T08:01:53;103627.50;;;9.79;71.39
64388;BME280;50709;52.648;4.764;2023-02-10T08:04:18;103629.06;;;9.93;71.32
64388;BME280;50709;52.648;4.764;2023-02-10T08:06:43;103625.91;;;9.82;70.88
64388;BME280;50709;52.648;4.764;2023-02-10T08:09:09;103619.53;;;10.12;71.22
64388;BME280;50709;52.648;4.764;2023-02-10T08:11:34;103629.06;;;9.93;69.97
64388;BME280;50709;52.648;4.764;2023-02-10T08:14:01;103636.47;;;10.20;70.94
64388;BME280;50709;52.648;4.764;2023-02-10T08:16:27;103620.63;;;9.99;71.31
64388;BME280;50709;52.648;4.764;2023-02-10T08:18:52;103621.19;;;10.09;71.37
64388;BME280;50709;52.648;4.764;2023-02-10T08:21:17;103637.66;;;10.26;70.69
64388;BME280;50709;52.648;4.764;2023-02-10T08:23:43;103627.81;;;10.21;70.98
64388;BME280;50709;52.648;4.764;2023-02-10T08:26:10;103628.94;;;10.26;69.71
64388;BME280;50709;52.648;4.764;2023-02-10T08:28:37;103629.63;;;10.77;69.21
64388;BME280;50709;52.648;4.764;2023-02-10T08:31:04;103646.09;;;10.94;69.29
64388;BME280;50709;52.648;4.764;2023-02-10T08:33:33;103631.97;;;10.91;68.83
64388;BME280;50709;52.648;4.764;2023-02-10T08:36:04;103633.97;;;10.97;68.43
64388;BME280;50709;52.648;4.764;2023-02-10T08:38:30;103643.31;;;10.72;68.44
64388;BME280;50709;52.648;4.764;2023-02-10T08:40:56;103611.91;;;10.52;69.69
64388;BME280;50709;52.648;4.764;2023-02-10T08:43:22;103625.53;;;10.65;68.98
64388;BME280;50709;52.648;4.764;2023-02-10T08:45:47;103610.41;;;10.21;69.36
64388;BME280;50709;52.648;4.764;2023-02-10T08:48:12;103632.00;;;10.73;69.96
64388;BME280;50709;52.648;4.764;2023-02-10T08:50:38;103613.41;;;11.04;69.29
64388;BME280;50709;52.648;4.764;2023-02-10T08:53:03;103626.66;;;11.28;68.36
64388;BME280;50709;52.648;4.764;2023-02-10T08:55:29;103602.25;;;11.91;66.92
64388;BME280;50709;52.648;4.764;2023-02-10T08:57:54;103609.97;;;11.67;66.57
64388;BME280;50709;52.648;4.764;2023-02-10T09:00:19;103616.25;;;11.71;66.84
64388;BME280;50709;52.648;4.764;2023-02-10T09:02:48;103635.09;;;11.62;67.45
64388;BME280;50709;52.648;4.764;2023-02-10T09:05:13;103632.13;;;11.54;65.55
64388;BME280;50709;52.648;4.764;2023-02-10T09:07:39;103627.97;;;11.19;64.79
64388;BME280;50709;52.648;4.764;2023-02-10T09:10:05;103629.63;;;11.57;65.34
64388;BME280;50709;52.648;4.764;2023-02-10T09:12:31;103617.16;;;11.31;65.31
64388;BME280;50709;52.648;4.764;2023-02-10T09:14:58;103633.00;;;11.55;66.38
64388;BME280;50709;52.648;4.764;2023-02-10T09:17:23;103631.84;;;11.48;66.09
64388;BME280;50709;52.648;4.764;2023-02-10T09:19:49;103635.22;;;11.45;67.29
64388;BME280;50709;52.648;4.764;2023-02-10T09:22:14;103631.25;;;10.75;66.62
64388;BME280;50709;52.648;4.764;2023-02-10T09:24:39;103629.81;;;10.82;66.01
64388;BME280;50709;52.648;4.764;2023-02-10T09:27:07;103624.97;;;11.50;66.25
64388;BME280;50709;52.648;4.764;2023-02-10T09:29:33;103602.50;;;11.15;66.05
64388;BME280;50709;52.648;4.764;2023-02-10T09:31:58;103623.78;;;11.84;66.82
64388;BME280;50709;52.648;4.764;2023-02-10T09:34:23;103610.16;;;11.93;66.13
64388;BME280;50709;52.648;4.764;2023-02-10T09:36:49;103571.09;;;11.98;64.45
64388;BME280;50709;52.648;4.764;2023-02-10T09:39:14;103599.53;;;12.09;64.37
64388;BME280;50709;52.648;4.764;2023-02-10T09:42:07;103633.19;;;12.67;63.74
64388;BME280;50709;52.648;4.764;2023-02-10T09:44:33;103621.09;;;12.04;64.04
64388;BME280;50709;52.648;4.764;2023-02-10T09:47:30;103623.50;;;12.66;63.83
64388;BME280;50709;52.648;4.764;2023-02-10T09:50:17;103611.34;;;12.00;61.87
64388;BME280;50709;52.648;4.764;2023-02-10T09:53:03;103590.66;;;11.64;63.26
64388;BME280;50709;52.648;4.764;2023-02-10T09:55:38;103608.00;;;12.48;63.67
64388;BME280;50709;52.648;4.764;2023-02-10T09:58:26;103576.00;;;12.34;62.44
64388;BME280;50709;52.648;4.764;2023-02-10T10:01:04;103613.94;;;12.21;62.32
64388;BME280;50709;52.648;4.764;2023-02-10T10:03:45;103607.72;;;12.64;63.91
64388;BME280;50709;52.648;4.764;2023-02-10T10:06:29;103626.34;;;12.94;62.86
64388;BME280;50709;52.648;4.764;2023-02-10T10:09:01;103625.59;;;12.29;62.22
64388;BME280;50709;52.648;4.764;2023-02-10T10:11:47;103635.44;;;12.35;63.77
64388;BME280;50709;52.648;4.764;2023-02-10T10:14:35;103634.44;;;11.89;63.32
64388;BME280;50709;52.648;4.764;2023-02-10T10:26:00;103595.44;;;11.53;62.70
64388;BME280;50709;52.648;4.764;2023-02-10T10:31:29;103648.53;;;12.12;62.09
64388;BME280;50709;52.648;4.764;2023-02-10T10:34:01;103601.09;;;12.27;63.14
64388;BME280;50709;52.648;4.764;2023-02-10T10:36:36;103652.94;;;12.36;61.92
64388;BME280;50709;52.648;4.764;2023-02-10T10:41:54;103647.31;;;11.42;62.21
64388;BME280;50709;52.648;4.764;2023-02-10T10:44:21;103646.69;;;11.90;63.23
64388;BME280;50709;52.648;4.764;2023-02-10T10:46:52;103635.50;;;12.14;61.19
64388;BME280;50709;52.648;4.764;2023-02-10T10:49:23;103652.31;;;12.64;63.04
64388;BME280;50709;52.648;4.764;2023-02-10T10:51:48;103649.31;;;12.32;60.12
64388;BME280;50709;52.648;4.764;2023-02-10T10:54:21;103650.34;;;11.72;62.07
64388;BME280;50709;52.648;4.764;2023-02-10T10:56:50;103640.19;;;11.80;59.83
64388;BME280;50709;52.648;4.764;2023-02-10T10:59:58;103636.47;;;11.94;60.32
64388;BME280;50709;52.648;4.764;2023-02-10T11:02:28;103632.00;;;11.72;60.49
64388;BME280;50709;52.648;4.764;2023-02-10T11:05:04;103622.56;;;12.18;63.14
64388;BME280;50709;52.648;4.764;2023-02-10T11:07:32;103633.66;;;12.34;61.81
64388;BME280;50709;52.648;4.764;2023-02-10T11:09:59;103617.75;;;12.52;61.83
64388;BME280;50709;52.648;4.764;2023-02-10T11:12:34;103610.44;;;11.57;58.73
64388;BME280;50709;52.648;4.764;2023-02-10T11:15:05;103616.03;;;11.87;58.81
64388;BME280;50709;52.648;4.764;2023-02-10T11:17:49;103592.81;;;12.16;62.03
64388;BME280;50709;52.648;4.764;2023-02-10T11:22:42;103607.78;;;11.98;60.83
64388;BME280;50709;52.648;4.764;2023-02-10T11:27:55;103591.72;;;12.11;56.98
64388;BME280;50709;52.648;4.764;2023-02-10T11:30:27;103616.75;;;12.25;59.92
64388;BME280;50709;52.648;4.764;2023-02-10T11:32:54;103599.28;;;12.26;60.88
64388;BME280;50709;52.648;4.764;2023-02-10T11:35:21;103590.09;;;12.37;62.00
64388;BME280;50709;52.648;4.764;2023-02-10T11:38:07;103610.22;;;12.84;59.98
64388;BME280;50709;52.648;4.764;2023-02-10T11:40:55;103604.91;;;12.35;58.09
64388;BME280;50709;52.648;4.764;2023-02-10T11:43:46;103621.69;;;12.87;60.39
64388;BME280;50709;52.648;4.764;2023-02-10T11:46:21;103610.25;;;12.38;57.89
64388;BME280;50709;52.648;4.764;2023-02-10T11:48:56;103574.38;;;12.15;59.24
64388;BME280;50709;52.648;4.764;2023-02-10T11:51:22;103613.31;;;12.28;61.98
64388;BME280;50709;52.648;4.764;2023-02-10T11:53:48;103605.72;;;12.34;60.76
64388;BME280;50709;52.648;4.764;2023-02-10T11:59:32;103602.75;;;12.25;60.54
64388;BME280;50709;52.648;4.764;2023-02-10T12:02:08;103574.16;;;12.08;59.94
64388;BME280;50709;52.648;4.764;2023-02-10T12:16:09;103593.22;;;11.62;63.56
64388;BME280;50709;52.648;4.764;2023-02-10T12:18:23;103594.47;;;11.51;63.11
64388;BME280;50709;52.648;4.764;2023-02-10T12:23:48;103590.38;;;11.57;64.30
64388;BME280;50709;52.648;4.764;2023-02-10T12:32:08;103561.47;;;11.54;63.85
64388;BME280;50709;52.648;4.764;2023-02-10T12:35:01;103572.00;;;11.56;64.30
64388;BME280;50709;52.648;4.764;2023-02-10T12:53:41;103537.59;;;12.11;61.78
64388;BME280;50709;52.648;4.764;2023-02-10T12:58:57;103536.97;;;12.41;61.26
64388;BME280;50709;52.648;4.764;2023-02-10T13:01:26;103536.25;;;12.70;62.06
64388;BME280;50709;52.648;4.764;2023-02-10T13:04:03;103514.72;;;12.07;61.05
64388;BME280;50709;52.648;4.764;2023-02-10T13:06:46;103514.16;;;12.39;62.94
64388;BME280;50709;52.648;4.764;2023-02-10T13:12:05;103505.69;;;11.78;63.50
64388;BME280;50709;52.648;4.764;2023-02-10T13:14:34;103510.00;;;12.21;61.44
64388;BME280;50709;52.648;4.764;2023-02-10T13:17:01;103507.78;;;12.32;60.70
64388;BME280;50709;52.648;4.764;2023-02-10T13:19:44;103504.25;;;12.54;60.54
64388;BME280;50709;52.648;4.764;2023-02-10T13:25:15;103484.72;;;12.22;60.76
64388;BME280;50709;52.648;4.764;2023-02-10T13:30:51;103479.59;;;12.02;62.64
64388;BME280;50709;52.648;4.764;2023-02-10T13:36:42;103462.22;;;12.27;59.48
64388;BME280;50709;52.648;4.764;2023-02-10T13:39:18;103461.56;;;12.10;60.77
64388;BME280;50709;52.648;4.764;2023-02-10T13:41:46;103481.31;;;12.24;61.70
64388;BME280;50709;52.648;4.764;2023-02-10T13:44:32;103500.44;;;11.99;59.68
64388;BME280;50709;52.648;4.764;2023-02-10T13:49:48;103498.28;;;12.34;62.10
64388;BME280;50709;52.648;4.764;2023-02-10T13:52:18;103498.28;;;12.58;61.54
64388;BME280;50709;52.648;4.764;2023-02-10T13:54:56;103485.19;;;12.11;61.53
64388;BME280;50709;52.648;4.764;2023-02-10T13:57:51;103518.81;;;12.46;62.76
64388;BME280;50709;52.648;4.764;2023-02-10T14:00:28;103515.81;;;12.84;60.62
64388;BME280;50709;52.648;4.764;2023-02-10T14:02:59;103515.13;;;12.65;60.35
64388;BME280;50709;52.648;4.764;2023-02-10T14:05:32;103518.31;;;11.88;60.84
64388;BME280;50709;52.648;4.764;2023-02-10T14:07:58;103492.38;;;12.17;60.13
64388;BME280;50709;52.648;4.764;2023-02-10T14:12:59;103462.78;;;12.20;62.32
64388;BME280;50709;52.648;4.764;2023-02-10T14:15:31;103486.00;;;12.33;61.13
64388;BME280;50709;52.648;4.764;2023-02-10T14:20:37;103437.63;;;13.52;61.79
64388;BME280;50709;52.648;4.764;2023-02-10T14:23:05;103459.31;;;14.99;56.97
64388;BME280;50709;52.648;4.764;2023-02-10T14:25:35;103468.41;;;13.85;54.60
64388;BME280;50709;52.648;4.764;2023-02-10T14:28:01;103462.53;;;13.65;58.88
64388;BME280;50709;52.648;4.764;2023-02-10T14:30:51;103428.22;;;13.33;58.89
64388;BME280;50709;52.648;4.764;2023-02-10T14:33:28;103450.66;;;13.49;59.65
64388;BME280;50709;52.648;4.764;2023-02-10T14:35:56;103444.03;;;13.35;57.70
64388;BME280;50709;52.648;4.764;2023-02-10T14:38:25;103446.56;;;13.59;57.54
64388;BME280;50709;52.648;4.764;2023-02-10T14:40:52;103407.28;;;13.91;56.09